Flight Track Log - Related Links

Times and Time Zones

All times are in EDT time to prevent confusion due to time zone crossing. See the SKW6446 flight status page for this flight to view local times or setup timezone preferences in your user account.

Time Position Orientation Groundspeed Altitude Reporting Facility
EDT Latitude Longitude Course Direction KTS MPH feet Rate Location/Type
Fri 09:46:03 PM 34.9103 -120.4906 283° West 185 213 2,100  Level Los Angeles Center
Fri 09:47:04 PM 34.8583 -120.4683 161° South 212 244 4,000 1,756 Climbing Los Angeles Center
Fri 09:48:06 PM 34.8108 -120.4356 150° Southeast 213 245 5,700 1,839 Climbing Los Angeles Center
Fri 09:49:00 PM 34.7466 -120.1215 132° Southeast  Level Estimated
Fri 09:49:08 PM 34.7542 -120.3986 152° Southeast 212 244 7,800  Level Los Angeles Center
Fri 09:50:00 PM 34.7081 -120.0376 116° Southeast  Level Estimated
Fri 09:50:09 PM 34.7117 -120.3542 139° Southeast 205 236 9,800  Level Los Angeles Center
Fri 09:51:11 PM 34.6914 -120.2886 111° Southeast 205 236 11,200 1,258 Climbing Los Angeles Center
Fri 09:52:13 PM 34.6611 -120.2192 118° Southeast 228 262 12,400 1,210 Climbing Los Angeles Center
Fri 09:53:15 PM 34.6281 -120.1503 120° Southeast 235 270 13,700 1,171 Climbing Los Angeles Center
Fri 09:54:16 PM 34.5928 -120.0750 120° Southeast 242 278 14,800 634 Climbing Los Angeles Center
Fri 09:55:18 PM 34.5481 -119.9817 120° Southeast 264 304 15,000 97 Climbing Los Angeles Center
Fri 09:56:20 PM 34.5094 -119.8986 119° Southeast 281 323 15,000  Level Los Angeles Center
Fri 09:57:22 PM 34.4722 -119.8153 118° Southeast 282 325 15,000  Level Los Angeles Center
Fri 09:58:24 PM 34.4347 -119.7331 119° Southeast 281 323 15,000  Level Los Angeles Center
Fri 09:59:25 PM 34.3958 -119.6506 120° Southeast 281 323 15,000 -244 Level Los Angeles Center
Fri 10:00:27 PM 34.3569 -119.5686 120° Southeast 281 323 14,500 -532 Descending Los Angeles Center
Fri 10:01:29 PM 34.3208 -119.4894 119° Southeast 274 315 13,900 -677 Descending Los Angeles Center
Fri 10:02:31 PM 34.2792 -119.3894 117° Southeast 280 322 13,100 -732 Descending Los Angeles Center
Fri 10:03:32 PM 34.2408 -119.3089 120° Southeast 277 319 12,400 -683 Descending Los Angeles Center
Fri 10:04:34 PM 34.2019 -119.2294 121° Southeast 275 316 11,700 -629 Descending Los Angeles Center
Fri 10:05:36 PM 34.1653 -119.1522 120° Southeast 267 307 11,100 -339 Descending Los Angeles Center
Fri 10:06:38 PM 34.1403 -119.0733 111° Southeast 252 290 11,000 -49 Descending Los Angeles Center
Fri 10:07:39 PM 34.1275 -118.9928 101° East 245 282 11,000  Level Los Angeles Center
Fri 10:08:41 PM 34.1067 -118.8969 105° East 246 283 11,000  Level Los Angeles Center
Fri 10:09:43 PM 34.0883 -118.8156 105° East 251 289 11,000 -435 Level Los Angeles Center
Fri 10:10:45 PM 34.0692 -118.7314 105° East 259 298 10,100 -488 Descending Los Angeles Center
Fri 10:11:46 PM 34.0492 -118.6356 104° East 270 311 10,000 -488 Descending Los Angeles Center
Fri 10:12:48 PM 34.0306 -118.5514 105° East 263 303 9,100 -1,210 Descending Los Angeles Center
Fri 10:13:50 PM 34.0117 -118.4722 106° East 247 284 7,500 -1,500 Descending Los Angeles Center
Fri 10:14:52 PM 34.0189 -118.4056 83° East 232 267 6,000 -1,548 Descending Los Angeles Center
Fri 10:15:54 PM 34.0272 -118.3331 82° East 222 255 4,300 -1,887 Descending Los Angeles Center
Fri 10:16:56 PM 33.9789 -118.3153 163° South 194 223 2,100 -2,129 Descending Los Angeles Center

Login

Don't have an account? Register now (free) for customized features, flight alerts, and more!